Time;durP1;ratioP1;P1;durP2;ratioP2;P2;SDS_P1;SDS_P2;PMS_P1;PMS_P2;Temp;Humidity;BMP_temperature;BMP_pressure;BME280_temperature;BME280_humidity;BME280_pressure;Samples;Min_cycle;Max_cycle;Signal;HPM_P1;HPM_P2
2022/12/19 00:02:25;;;;;;;33.60;9.17;;;;;;;-2.96;86.91;102317.38;5095950;28;20480;-67
2022/12/19 00:04:52;;;;;;;25.30;9.20;;;;;;;-2.92;86.27;102320.50;5095168;28;20464;-67
2022/12/19 00:07:19;;;;;;;18.50;8.43;;;;;;;-2.88;86.91;102317.38;5096331;28;20445;-66
2022/12/19 00:09:45;;;;;;;25.10;9.57;;;;;;;-2.88;86.38;102325.31;5095040;28;20546;-68
2022/12/19 00:12:12;;;;;;;27.03;9.10;;;;;;;-2.78;85.83;102324.31;5095974;28;20510;-67
2022/12/19 00:14:38;;;;;;;23.13;9.70;;;;;;;-2.91;85.11;102307.09;5095786;28;20452;-66
2022/12/19 00:17:05;;;;;;;29.33;9.40;;;;;;;-2.90;86.19;102292.84;5095742;28;20531;-67
2022/12/19 00:19:33;;;;;;;20.00;8.60;;;;;;;-2.93;85.98;102297.63;5095001;28;20930;-67
2022/12/19 00:22:00;;;;;;;21.57;7.80;;;;;;;-2.92;86.04;102293.97;5095702;28;20499;-67
2022/12/19 00:24:26;;;;;;;21.07;8.30;;;;;;;-2.85;86.15;102306.41;5093271;28;20459;-67
2022/12/19 00:26:53;;;;;;;30.33;9.43;;;;;;;-2.90;85.69;102292.84;5095927;28;20454;-69
2022/12/19 00:29:20;;;;;;;22.40;8.50;;;;;;;-2.82;85.64;102298.13;5094808;28;20903;-67
2022/12/19 00:31:46;;;;;;;22.80;8.50;;;;;;;-2.78;85.54;102300.44;5095766;28;20460;-67
2022/12/19 00:34:13;;;;;;;29.93;9.57;;;;;;;-2.72;85.36;102287.31;5095056;28;20475;-66
2022/12/19 00:36:41;;;;;;;23.00;7.23;;;;;;;-2.69;84.26;102281.69;5094995;28;20455;-66
2022/12/19 00:39:09;;;;;;;31.90;10.50;;;;;;;-2.72;84.32;102283.84;5094293;28;20488;-67
2022/12/19 00:41:38;;;;;;;29.00;10.77;;;;;;;-2.78;85.17;102289.84;5093464;28;20480;-67
2022/12/19 00:44:07;;;;;;;25.17;10.07;;;;;;;-2.72;84.74;102275.88;5095576;28;20907;-67
2022/12/19 00:46:35;;;;;;;21.73;8.07;;;;;;;-2.64;84.10;102270.56;5085044;28;20541;-66
2022/12/19 00:49:02;;;;;;;28.93;8.80;;;;;;;-2.64;84.65;102267.91;5075008;28;20960;-66
2022/12/19 00:51:31;;;;;;;31.23;9.33;;;;;;;-2.65;84.58;102255.66;5082818;28;20487;-67
2022/12/19 00:53:59;;;;;;;14.53;6.83;;;;;;;-2.63;84.13;102258.94;5094440;28;20440;-70
2022/12/19 00:56:27;;;;;;;23.23;8.30;;;;;;;-2.64;84.55;102258.13;5095450;28;20461;-70
2022/12/19 00:58:55;;;;;;;19.10;7.37;;;;;;;-2.68;84.64;102255.97;5093455;28;20567;-69
2022/12/19 01:01:23;;;;;;;22.77;8.77;;;;;;;-2.64;84.58;102254.63;5093836;28;20495;-70
2022/12/19 01:03:50;;;;;;;21.50;8.07;;;;;;;-2.64;84.03;102239.56;5119619;22;20523;-66
2022/12/19 01:06:17;;;;;;;23.23;9.37;;;;;;;-2.67;84.55;102237.22;5094433;28;20502;-66
2022/12/19 01:08:44;;;;;;;17.60;7.20;;;;;;;-2.62;84.49;102240.19;5095088;28;20489;-67
2022/12/19 01:11:12;;;;;;;20.53;8.97;;;;;;;-2.69;83.89;102210.06;5094261;28;20445;-66
2022/12/19 01:13:39;;;;;;;17.57;8.10;;;;;;;-2.63;84.60;102203.25;5093562;28;20500;-66
2022/12/19 01:16:09;;;;;;;26.57;8.30;;;;;;;-2.59;83.71;102220.47;5095184;28;20448;-67
2022/12/19 01:18:37;;;;;;;23.17;8.60;;;;;;;-2.58;83.79;102216.81;5074497;28;20447;-67
2022/12/19 01:21:06;;;;;;;34.50;8.53;;;;;;;-2.57;83.91;102219.31;5083414;28;20448;-66
2022/12/19 01:23:33;;;;;;;19.90;8.97;;;;;;;-2.64;84.34;102213.03;5093600;28;20507;-66
2022/12/19 01:26:00;;;;;;;20.43;8.17;;;;;;;-2.60;85.06;102209.03;5092442;28;20509;-66
2022/12/19 01:28:28;;;;;;;16.73;8.10;;;;;;;-2.58;84.51;102190.28;5094499;28;20540;-66
2022/12/19 01:30:54;;;;;;;20.63;8.13;;;;;;;-2.58;83.28;102182.31;5094078;28;20502;-66
2022/12/19 01:33:21;;;;;;;21.57;9.37;;;;;;;-2.60;84.11;102176.38;5094504;28;20974;-66
2022/12/19 01:35:48;;;;;;;27.77;8.50;;;;;;;-2.53;83.60;102177.31;5093581;28;20540;-66
2022/12/19 01:38:17;;;;;;;20.50;8.33;;;;;;;-2.50;83.75;102171.69;5094684;28;20445;-66
2022/12/19 01:40:50;;;;;;;17.80;7.17;;;;;;;-2.47;83.58;102175.81;5092475;28;20487;-67
2022/12/19 01:43:17;;;;;;;18.27;6.90;;;;;;;-2.48;82.68;102185.56;5094477;28;20461;-67
2022/12/19 01:45:47;;;;;;;21.77;8.17;;;;;;;-2.44;83.15;102184.22;5093105;28;20445;-66
2022/12/19 01:48:18;;;;;;;14.33;6.30;;;;;;;-2.44;82.65;102176.28;5093493;28;20510;-66
2022/12/19 01:50:54;;;;;;;25.23;7.03;;;;;;;-2.33;82.35;102181.19;5094223;28;20543;-67
2022/12/19 01:53:23;;;;;;;21.80;7.07;;;;;;;-2.37;82.29;102158.66;5093278;28;20555;-67
2022/12/19 01:55:50;;;;;;;20.50;7.37;;;;;;;-2.38;82.16;102154.34;5093058;28;20535;-67
2022/12/19 01:58:18;;;;;;;17.90;6.60;;;;;;;-2.34;82.06;102150.34;5093340;28;20861;-67
2022/12/19 02:00:46;;;;;;;16.87;6.60;;;;;;;-2.33;82.25;102124.63;5093874;28;20477;-67
2022/12/19 02:03:18;;;;;;;23.13;8.10;;;;;;;-2.40;82.10;102142.25;5092772;28;20484;-66
2022/12/19 02:05:46;;;;;;;22.87;7.77;;;;;;;-2.30;81.67;102129.59;5074853;28;20442;-67
2022/12/19 02:08:13;;;;;;;23.10;8.60;;;;;;;-2.32;81.89;102131.59;5093881;28;20480;-66
2022/12/19 02:10:40;;;;;;;23.50;7.97;;;;;;;-2.38;82.05;102124.34;5092422;28;20472;-66
2022/12/19 02:13:07;;;;;;;15.90;7.13;;;;;;;-2.42;82.54;102121.22;5093664;28;20460;-66
2022/12/19 02:15:49;;;;;;;17.50;7.40;;;;;;;-2.38;82.75;102127.81;5092946;28;20904;-67
2022/12/19 02:18:27;;;;;;;25.77;8.00;;;;;;;-2.38;83.03;102129.66;5092689;28;20535;-67
2022/12/19 02:21:19;;;;;;;15.70;5.83;;;;;;;-2.40;82.85;102113.91;5093388;28;20575;-65
2022/12/19 02:24:16;;;;;;;20.23;8.00;;;;;;;-2.49;83.82;102114.13;5092845;28;20500;-66
2022/12/19 02:27:14;;;;;;;15.43;4.90;;;;;;;-2.42;83.43;102109.78;5092609;28;20533;-65
2022/12/19 02:30:10;;;;;;;22.63;8.10;;;;;;;-2.51;83.65;102103.72;5073203;28;20498;-66
2022/12/19 02:32:47;;;;;;;20.40;8.10;;;;;;;-2.50;83.03;102086.78;5082878;28;20507;-66
2022/12/19 02:35:23;;;;;;;20.83;7.63;;;;;;;-2.54;83.09;102093.44;5093384;28;20945;-66
2022/12/19 02:37:55;;;;;;;22.83;7.90;;;;;;;-2.58;83.49;102089.50;5092375;28;20521;-66
2022/12/19 02:40:26;;;;;;;26.57;7.77;;;;;;;-2.55;83.60;102105.88;5092503;28;20477;-66
2022/12/19 02:42:58;;;;;;;19.33;7.27;;;;;;;-2.54;83.96;102102.22;5093399;28;20484;-66
2022/12/19 02:45:26;;;;;;;19.23;6.07;;;;;;;-2.65;83.30;102107.13;5092914;28;20484;-66
2022/12/19 02:47:55;;;;;;;18.57;7.23;;;;;;;-2.62;83.87;102094.31;5092203;28;20464;-66
2022/12/19 02:50:22;;;;;;;18.83;6.50;;;;;;;-2.67;83.35;102106.47;5093334;28;20509;-66
2022/12/19 02:52:49;;;;;;;15.57;7.97;;;;;;;-2.67;83.93;102106.47;5092018;28;20521;-66
2022/12/19 02:55:21;;;;;;;23.63;7.50;;;;;;;-2.66;84.47;102100.97;5093515;28;20494;-66
2022/12/19 02:58:10;;;;;;;14.43;5.90;;;;;;;-2.66;84.18;102092.19;5091887;28;20456;-66
2022/12/19 03:00:43;;;;;;;29.97;7.67;;;;;;;-2.61;83.93;102089.88;5091939;28;20619;-66
2022/12/19 03:03:20;;;;;;;24.93;8.10;;;;;;;-2.68;84.02;102086.25;5092176;28;20575;-66
2022/12/19 03:05:57;;;;;;;15.40;7.30;;;;;;;-2.64;84.51;102090.22;5093200;28;20444;-66
2022/12/19 03:08:28;;;;;;;25.73;8.23;;;;;;;-2.64;84.90;102095.53;5075063;28;20479;-66
2022/12/19 03:10:59;;;;;;;23.13;8.10;;;;;;;-2.63;84.57;102083.91;5093234;28;20527;-67
2022/12/19 03:13:29;;;;;;;20.73;7.13;;;;;;;-2.57;84.68;102080.53;5092778;28;20544;-66
2022/12/19 03:15:57;;;;;;;17.67;8.60;;;;;;;-2.57;84.19;102085.84;5093131;28;21002;-66
2022/12/19 03:18:25;;;;;;;22.47;9.00;;;;;;;-2.54;84.42;102083.66;5093055;28;20441;-66
2022/12/19 03:20:57;;;;;;;21.20;8.73;;;;;;;-2.54;83.72;102088.97;5092650;28;20913;-66
2022/12/19 03:23:24;;;;;;;20.33;7.80;;;;;;;-2.53;83.98;102087.13;5097000;28;20449;-66
2022/12/19 03:25:54;;;;;;;15.90;6.90;;;;;;;-2.59;84.65;102087.84;5097160;28;20453;-68
2022/12/19 03:28:25;;;;;;;19.43;8.43;;;;;;;-2.57;85.57;102075.22;5096595;28;20530;-67
2022/12/19 03:30:54;;;;;;;25.07;9.87;;;;;;;-2.51;84.69;102074.53;5095995;28;20541;-67
2022/12/19 03:33:22;;;;;;;20.80;7.97;;;;;;;-2.49;84.24;102069.88;5096859;28;20463;-68
2022/12/19 03:35:52;;;;;;;23.13;8.10;;;;;;;-2.45;83.84;102073.81;5096210;28;20935;-67
2022/12/19 03:38:21;;;;;;;16.03;8.33;;;;;;;-2.51;84.42;102069.25;5097009;28;20452;-67
2022/12/19 03:40:49;;;;;;;20.43;7.83;;;;;;;-2.49;84.32;102072.53;5095604;28;20472;-67
2022/12/19 03:43:17;;;;;;;20.40;8.97;;;;;;;-2.55;83.80;102073.25;5096944;28;20884;-67
2022/12/19 03:45:52;;;;;;;25.33;7.70;;;;;;;-2.52;84.53;102064.94;5096536;28;20459;-66
2022/12/19 03:48:24;;;;;;;23.80;8.13;;;;;;;-2.53;83.83;102056.13;5096996;28;20866;-65
2022/12/19 03:51:03;;;;;;;25.50;8.50;;;;;;;-2.55;84.44;102058.16;5095573;28;20483;-68
2022/12/19 03:53:41;;;;;;;21.73;9.67;;;;;;;-2.58;83.81;102060.31;5096604;28;20456;-70
2022/12/19 03:56:16;;;;;;;20.47;9.43;;;;;;;-2.59;84.57;102062.16;5095187;28;20456;-69
2022/12/19 03:58:52;;;;;;;26.80;8.87;;;;;;;-2.50;84.35;102068.22;5096562;28;20802;-69
2022/12/19 04:01:20;;;;;;;19.53;7.67;;;;;;;-2.44;84.24;102072.81;5095251;28;20486;-70
2022/12/19 04:03:47;;;;;;;24.13;9.37;;;;;;;-2.49;84.82;102075.19;5096314;28;20483;-69
2022/12/19 04:06:17;;;;;;;18.63;8.10;;;;;;;-2.51;84.53;102069.25;5094443;28;20448;-69
2022/12/19 04:08:44;;;;;;;20.13;8.17;;;;;;;-2.56;84.30;102061.81;5096432;28;20447;-70
2022/12/19 04:11:18;;;;;;;22.07;8.87;;;;;;;-2.51;84.82;102061.28;5095104;28;20463;-70
2022/12/19 04:13:51;;;;;;;25.77;7.90;;;;;;;-2.54;83.74;102059.78;5096266;28;20456;-69
2022/12/19 04:16:23;;;;;;;21.57;8.90;;;;;;;-2.56;84.86;102050.38;5095546;28;21007;-70
2022/12/19 04:18:56;;;;;;;21.20;7.90;;;;;;;-2.56;84.91;102058.34;5096067;28;20455;-70
2022/12/19 04:21:31;;;;;;;24.47;9.70;;;;;;;-2.49;84.77;102056.59;5094487;28;20544;-69
2022/12/19 04:24:02;;;;;;;22.63;9.13;;;;;;;-2.47;84.66;102059.91;5096170;28;20814;-70
2022/12/19 04:26:31;;;;;;;21.20;8.57;;;;;;;-2.45;84.65;102073.81;5095134;28;20448;-71
2022/12/19 04:29:02;;;;;;;22.70;8.03;;;;;;;-2.39;84.48;102062.50;5095884;28;20526;-70
2022/12/19 04:31:29;;;;;;;20.83;8.60;;;;;;;-2.31;84.03;102077.50;5094772;28;20564;-69
2022/12/19 04:33:56;;;;;;;32.67;9.23;;;;;;;-2.36;84.42;102059.47;5095017;28;20457;-70
2022/12/19 04:36:25;;;;;;;29.37;10.07;;;;;;;-2.39;84.63;102073.13;5094694;28;20504;-66
2022/12/19 04:38:52;;;;;;;19.77;8.70;;;;;;;-2.55;84.05;102065.28;5095881;28;20440;-67
2022/12/19 04:41:19;;;;;;;23.17;9.23;;;;;;;-2.51;84.65;102058.63;5094882;28;20544;-67
2022/12/19 04:43:45;;;;;;;24.60;9.07;;;;;;;-2.55;84.54;102065.28;5095674;28;20478;-67
2022/12/19 04:46:12;;;;;;;20.77;8.90;;;;;;;-2.52;84.67;102064.94;5094456;28;20480;-67
2022/12/19 04:48:39;;;;;;;20.90;8.27;;;;;;;-2.47;84.23;102069.72;5095340;28;20881;-67
2022/12/19 04:51:06;;;;;;;18.57;7.37;;;;;;;-2.47;83.96;102054.63;5094753;28;20510;-67
2022/12/19 04:53:35;;;;;;;27.40;9.10;;;;;;;-2.58;84.02;102047.06;5095418;28;20464;-67
2022/12/19 04:56:02;;;;;;;30.47;9.93;;;;;;;-2.56;84.62;102043.25;5094368;28;20449;-67
2022/12/19 04:58:29;;;;;;;24.10;8.70;;;;;;;-2.56;84.13;102035.28;5095445;28;20539;-67
2022/12/19 05:01:00;;;;;;;17.77;8.23;;;;;;;-2.58;84.76;102031.97;5094265;28;20563;-67
2022/12/19 05:03:27;;;;;;;17.73;7.80;;;;;;;-2.60;84.86;102033.16;5095172;28;20579;-67
2022/12/19 05:06:02;;;;;;;21.07;9.10;;;;;;;-2.59;84.82;102042.78;5093836;28;20802;-67
2022/12/19 05:08:29;;;;;;;21.80;9.27;;;;;;;-2.58;84.74;102036.47;5095189;28;20851;-67
2022/12/19 05:11:00;;;;;;;22.30;9.70;;;;;;;-2.62;83.50;102022.72;5095158;28;20452;-67
2022/12/19 05:13:28;;;;;;;21.20;8.47;;;;;;;-2.59;84.54;102032.16;5095051;28;20524;-67
2022/12/19 05:15:59;;;;;;;24.97;10.43;;;;;;;-2.60;84.38;102030.53;5093514;28;20505;-67
2022/12/19 05:18:26;;;;;;;22.70;9.27;;;;;;;-2.67;85.00;102033.03;5095001;28;20429;-67
2022/12/19 05:20:53;;;;;;;19.50;7.73;;;;;;;-2.65;85.57;102039.00;5093497;28;21004;-67
2022/12/19 05:23:20;;;;;;;26.27;9.00;;;;;;;-2.62;84.97;102029.84;5094933;28;20510;-67
2022/12/19 05:25:47;;;;;;;27.03;10.47;;;;;;;-2.59;85.29;102027.69;5094530;28;20957;-66
2022/12/19 05:28:16;;;;;;;28.60;10.10;;;;;;;-2.59;84.77;102025.03;5094876;28;20949;-66
2022/12/19 05:30:43;;;;;;;22.70;9.80;;;;;;;-2.60;85.99;102012.78;5093713;28;20960;-66
2022/12/19 05:33:10;;;;;;;24.17;10.40;;;;;;;-2.56;86.00;102022.03;5094757;28;20460;-66
2022/12/19 05:35:38;;;;;;;23.60;9.13;;;;;;;-2.54;85.68;102024.50;5093560;28;20457;-67
2022/12/19 05:38:05;;;;;;;31.93;9.87;;;;;;;-2.47;85.61;102029.91;5094522;28;20829;-68
2022/12/19 05:40:32;;;;;;;29.53;10.63;;;;;;;-2.35;85.62;102021.31;5091071;28;20472;-67
2022/12/19 05:42:58;;;;;;;25.50;10.27;;;;;;;-2.32;84.21;102010.38;5092249;28;20875;-67
2022/12/19 05:45:26;;;;;;;24.93;8.43;;;;;;;-2.28;84.32;102009.00;5094413;28;20444;-67
2022/12/19 05:47:53;;;;;;;31.47;9.90;;;;;;;-2.35;83.77;102004.59;5093643;28;20471;-67
2022/12/19 05:50:20;;;;;;;24.63;9.60;;;;;;;-2.29;84.10;101998.56;5094399;28;20445;-67
2022/12/19 05:52:46;;;;;;;15.53;7.10;;;;;;;-2.30;83.72;102000.41;5093846;28;20571;-73
2022/12/19 05:55:13;;;;;;;27.10;10.57;;;;;;;-2.24;84.06;101995.38;5094337;28;20444;-68
2022/12/19 05:57:40;;;;;;;35.67;11.63;;;;;;;-2.17;83.58;101988.31;5093082;28;20526;-67
2022/12/19 06:00:08;;;;;;;29.47;9.33;;;;;;;-2.16;83.58;101976.72;5094081;28;20472;-70
2022/12/19 06:02:36;;;;;;;22.27;9.03;;;;;;;-2.08;83.16;101984.56;5093844;28;20473;-67
2022/12/19 06:05:02;;;;;;;24.40;9.87;;;;;;;-2.08;83.39;101980.13;5093832;28;20806;-66
2022/12/19 06:07:29;;;;;;;21.43;8.97;;;;;;;-2.06;83.19;101975.44;5093010;28;20457;-66
2022/12/19 06:09:56;;;;;;;26.80;9.43;;;;;;;-1.97;82.65;101973.50;5092944;28;20831;-66
2022/12/19 06:12:23;;;;;;;29.83;9.07;;;;;;;-1.93;82.97;101971.31;5092636;28;20483;-67
2022/12/19 06:14:49;;;;;;;34.03;10.50;;;;;;;-1.92;82.29;101973.78;5093302;28;20829;-66
2022/12/19 06:17:16;;;;;;;16.80;6.70;;;;;;;-1.83;82.33;101956.75;5092658;28;20453;-67
2022/12/19 06:19:44;;;;;;;29.67;10.00;;;;;;;-1.82;81.27;101944.28;5093906;28;20832;-67
2022/12/19 06:22:11;;;;;;;19.43;9.27;;;;;;;-1.88;82.04;101937.88;5092515;28;20542;-71
2022/12/19 06:24:37;;;;;;;16.57;7.60;;;;;;;-1.80;82.31;101942.28;5093782;28;20436;-70
2022/12/19 06:27:04;;;;;;;19.93;10.03;;;;;;;-1.88;81.95;101937.88;5092703;28;20456;-69
2022/12/19 06:29:31;;;;;;;25.40;9.20;;;;;;;-1.85;82.21;101929.56;5092573;28;20498;-70
2022/12/19 06:31:58;;;;;;;18.60;8.27;;;;;;;-1.81;82.11;101933.50;5093878;28;20540;-69
2022/12/19 06:34:24;;;;;;;25.53;10.00;;;;;;;-1.84;81.89;101925.06;5093705;28;20505;-69
2022/12/19 06:36:54;;;;;;;26.50;9.20;;;;;;;-1.86;82.45;101922.63;5093706;28;20489;-71
2022/12/19 06:39:21;;;;;;;23.23;9.43;;;;;;;-1.75;82.14;101936.41;5093746;28;20444;-71
2022/12/19 06:44:32;;;;;;;29.13;10.07;;;;;;;-1.64;81.35;101946.53;5093647;28;20403;-71
2022/12/19 06:46:59;;;;;;;31.23;9.80;;;;;;;-1.63;80.64;101942.91;5093789;28;20480;-72
2022/12/19 06:49:25;;;;;;;21.87;8.73;;;;;;;-1.56;80.36;101951.75;5093634;28;20961;-71
2022/12/19 06:51:54;;;;;;;28.37;9.37;;;;;;;-1.65;80.15;101942.25;5093467;28;20500;-71
2022/12/19 06:54:20;;;;;;;26.80;9.10;;;;;;;-1.58;80.23;101954.59;5093459;28;20497;-71
2022/12/19 06:56:47;;;;;;;17.27;7.67;;;;;;;-1.56;79.92;101957.88;5092632;28;20815;-71
2022/12/19 06:59:16;;;;;;;23.80;7.83;;;;;;;-1.49;79.92;101963.28;5093177;28;21020;-70
2022/12/19 07:01:55;;;;;;;20.00;8.40;;;;;;;-1.47;79.72;101955.94;5093147;28;20481;-70
2022/12/19 07:04:28;;;;;;;22.83;8.70;;;;;;;-1.37;79.11;101942.38;5117193;22;21032;-67
2022/12/19 07:06:57;;;;;;;22.90;8.87;;;;;;;-1.37;78.88;101940.53;5093491;28;20548;-67
2022/12/19 07:09:25;;;;;;;25.60;9.60;;;;;;;-1.38;79.38;101938.88;5093245;28;20441;-67
2022/12/19 07:11:52;;;;;;;25.23;8.50;;;;;;;-1.35;78.55;101948.31;5093175;28;20445;-68
2022/12/19 07:14:19;;;;;;;24.03;9.53;;;;;;;-1.33;77.95;101944.47;5093260;28;20460;-70
2022/12/19 07:16:46;;;;;;;22.80;8.30;;;;;;;-1.24;78.45;101944.31;5093174;28;20448;-71
2022/12/19 07:19:13;;;;;;;24.57;8.57;;;;;;;-1.24;77.50;101939.81;5093811;28;20432;-70
2022/12/19 07:21:41;;;;;;;19.30;7.53;;;;;;;-1.19;77.79;101939.28;5093252;28;20476;-70
2022/12/19 07:24:10;;;;;;;28.40;9.10;;;;;;;-1.27;77.62;101935.72;5092993;28;20514;-70
2022/12/19 07:26:37;;;;;;;26.70;9.37;;;;;;;-1.27;77.31;101927.75;5092734;28;20796;-70
2022/12/19 07:29:04;;;;;;;28.17;8.60;;;;;;;-1.16;77.83;101936.22;5093329;28;20468;-70
2022/12/19 07:31:30;;;;;;;20.67;8.43;;;;;;;-1.17;77.44;101924.78;5093008;28;20448;-69
2022/12/19 07:33:57;;;;;;;26.40;8.80;;;;;;;-1.10;77.31;101930.16;5092954;28;20469;-69
2022/12/19 07:36:24;;;;;;;17.47;8.43;;;;;;;-1.09;76.88;101939.78;5093231;28;20476;-69
2022/12/19 07:38:51;;;;;;;17.43;8.47;;;;;;;-1.04;76.30;101943.50;5092895;28;20448;-69
2022/12/19 07:41:19;;;;;;;21.50;8.17;;;;;;;-0.99;76.93;101942.94;5092657;28;20488;-70
2022/12/19 07:43:46;;;;;;;20.13;8.67;;;;;;;-1.02;77.52;101940.66;5092885;28;20460;-70
2022/12/19 07:46:13;;;;;;;28.63;8.20;;;;;;;-1.00;77.53;101933.31;5092898;28;20455;-70
2022/12/19 07:48:39;;;;;;;21.80;8.40;;;;;;;-0.98;77.31;101917.97;5092992;28;20493;-70
2022/12/19 07:51:06;;;;;;;21.00;7.77;;;;;;;-0.98;77.43;101917.16;5092738;28;20445;-70
2022/12/19 07:53:33;;;;;;;16.20;8.10;;;;;;;-0.91;77.21;101918.88;5092675;28;20513;-70
2022/12/19 07:55:59;;;;;;;22.37;9.20;;;;;;;-0.97;76.37;101914.34;5092686;28;20456;-70
2022/12/19 07:58:27;;;;;;;25.53;9.07;;;;;;;-0.95;77.24;101916.78;5092733;28;20505;-70
2022/12/19 08:00:55;;;;;;;22.97;7.90;;;;;;;-0.96;76.15;101915.97;5092561;28;20480;-71
2022/12/19 08:03:22;;;;;;;18.70;8.30;;;;;;;-0.91;76.83;101913.56;5092426;28;20567;-72
2022/12/19 08:05:49;;;;;;;17.03;7.30;;;;;;;-0.86;76.21;101924.44;5092627;28;20502;-71
2022/12/19 08:08:15;;;;;;;21.00;7.70;;;;;;;-0.79;76.42;101905.88;5093424;28;20893;-70
2022/12/19 08:10:42;;;;;;;25.53;8.90;;;;;;;-0.70;76.05;101911.88;5096297;28;20485;-71
2022/12/19 08:13:09;;;;;;;25.10;8.17;;;;;;;-0.64;75.49;101911.09;5095861;28;20977;-71
2022/12/19 08:15:37;;;;;;;26.80;7.63;;;;;;;-0.58;74.88;101910.31;5096175;28;20493;-71
2022/12/19 08:18:03;;;;;;;18.43;8.20;;;;;;;-0.60;74.50;101888.41;5096241;28;20501;-70
2022/12/19 08:20:30;;;;;;;24.70;8.23;;;;;;;-0.65;75.02;101896.16;5096180;28;20485;-70
2022/12/19 08:22:57;;;;;;;21.57;8.30;;;;;;;-0.64;74.57;101909.25;5096034;28;20496;-71
2022/12/19 08:25:23;;;;;;;19.63;7.80;;;;;;;-0.59;74.54;101917.47;5095971;28;20941;-70
2022/12/19 08:27:50;;;;;;;19.73;7.80;;;;;;;-0.60;74.81;101907.03;5096045;28;20441;-71
2022/12/19 08:30:17;;;;;;;19.30;8.20;;;;;;;-0.53;74.27;101910.56;5095708;28;20444;-70
2022/12/19 08:32:45;;;;;;;18.10;7.67;;;;;;;-0.53;75.00;101915.91;5095854;28;20462;-70
2022/12/19 08:35:12;;;;;;;20.37;8.20;;;;;;;-0.46;75.25;101914.09;5096027;28;20973;-70
2022/12/19 08:37:39;;;;;;;18.77;7.47;;;;;;;-0.32;74.94;101899.84;5095884;28;20444;-71
2022/12/19 08:40:07;;;;;;;23.33;8.67;;;;;;;-0.31;73.80;101904.16;5095880;28;20451;-70
2022/12/19 08:42:33;;;;;;;17.40;7.47;;;;;;;-0.27;73.02;101893.91;5095691;28;20519;-70
2022/12/19 08:45:00;;;;;;;24.77;9.23;;;;;;;-0.22;72.92;101898.66;5095715;28;20464;-70
2022/12/19 08:47:26;;;;;;;19.13;7.60;;;;;;;-0.22;74.55;101886.19;5095460;28;20528;-70
2022/12/19 08:49:55;;;;;;;25.13;7.90;;;;;;;-0.21;73.89;101873.69;5095440;28;20942;-70
2022/12/19 08:52:22;;;;;;;16.17;6.73;;;;;;;-0.15;74.51;101870.22;5095601;28;20468;-70
2022/12/19 08:54:48;;;;;;;17.00;6.90;;;;;;;-0.06;73.33;101853.06;5095253;28;20560;-70
2022/12/19 08:57:15;;;;;;;21.30;8.10;;;;;;;-0.07;73.32;101854.09;5095227;28;20894;-70
2022/12/19 08:59:41;;;;;;;14.77;6.10;;;;;;;-0.04;72.64;101854.53;5095458;28;20441;-70
2022/12/19 09:02:09;;;;;;;19.73;9.30;;;;;;;0.00;72.47;101862.94;5095379;28;20487;-70
2022/12/19 09:04:36;;;;;;;22.53;9.20;;;;;;;-0.02;72.59;101854.31;5095025;28;20479;-70
2022/12/19 09:07:04;;;;;;;19.60;7.83;;;;;;;0.00;72.38;101854.94;5095434;28;20451;-69
2022/12/19 09:09:31;;;;;;;21.77;7.37;;;;;;;0.06;72.36;101851.47;5095419;28;20483;-71
2022/12/19 09:11:57;;;;;;;26.43;8.20;;;;;;;0.06;73.08;101858.66;5095465;28;20436;-71
2022/12/19 09:14:24;;;;;;;26.37;9.60;;;;;;;0.10;72.61;101846.56;5094990;28;20997;-70
2022/12/19 09:16:50;;;;;;;22.33;9.27;;;;;;;0.15;72.13;101834.28;5095116;28;20513;-70
2022/12/19 09:19:17;;;;;;;18.83;7.50;;;;;;;0.20;72.31;101842.50;5094749;28;20808;-68
2022/12/19 09:21:44;;;;;;;19.37;7.10;;;;;;;0.23;72.45;101836.78;5094992;28;20484;-69
2022/12/19 09:24:12;;;;;;;25.63;8.07;;;;;;;0.29;72.62;101845.78;5094908;28;20576;-69
2022/12/19 09:26:40;;;;;;;25.03;8.70;;;;;;;0.31;72.24;101826.94;5094957;28;20440;-69
2022/12/19 09:29:08;;;;;;;18.07;7.60;;;;;;;0.33;72.85;101827.56;5094880;28;20823;-69
2022/12/19 09:31:34;;;;;;;21.53;7.93;;;;;;;0.34;72.86;101816.69;5094791;28;20440;-69
2022/12/19 09:34:01;;;;;;;16.43;7.37;;;;;;;0.39;72.54;101818.75;5094735;28;20453;-69
2022/12/19 09:36:27;;;;;;;21.60;7.33;;;;;;;0.35;72.86;101806.84;5094708;28;20794;-69
2022/12/19 09:38:55;;;;;;;17.13;7.73;;;;;;;0.36;72.61;101803.19;5094632;28;20483;-69
2022/12/19 09:41:55;;;;;;;19.70;8.97;;;;;;;0.48;71.89;101801.53;5094176;28;20575;-69
2022/12/19 09:44:34;;;;;;;21.83;8.87;;;;;;;0.45;71.88;101791.31;5094451;28;20464;-69
2022/12/19 09:47:03;;;;;;;18.10;7.07;;;;;;;0.50;71.50;101788.84;5094547;28;20431;-69
2022/12/19 09:49:35;;;;;;;24.50;8.27;;;;;;;0.59;71.41;101782.28;5069342;28;20938;-69
2022/12/19 09:52:07;;;;;;;23.73;8.10;;;;;;;0.60;71.17;101783.91;5074123;28;20505;-69
2022/12/19 09:54:37;;;;;;;22.53;7.87;;;;;;;0.66;71.52;101776.94;5073333;28;20568;-69
2022/12/19 09:57:13;;;;;;;19.40;7.83;;;;;;;0.78;71.45;101763.81;5074038;28;20513;-69
2022/12/19 09:59:44;;;;;;;17.20;6.90;;;;;;;0.91;70.21;101766.47;5073165;28;20465;-69
2022/12/19 10:02:25;;;;;;;21.00;7.20;;;;;;;0.92;71.02;101754.75;5073514;28;20485;-69
2022/12/19 10:04:59;;;;;;;20.47;7.27;;;;;;;1.01;70.31;101753.50;5073021;28;20473;-69
2022/12/19 10:07:26;;;;;;;23.97;8.27;;;;;;;1.13;69.96;101746.50;5069191;28;20826;-69
2022/12/19 10:09:54;;;;;;;15.77;6.60;;;;;;;1.31;69.79;101751.19;5073187;28;20504;-69
2022/12/19 10:12:46;;;;;;;15.33;7.67;;;;;;;1.36;68.66;101737.19;5073628;28;20441;-69
2022/12/19 10:15:21;;;;;;;27.60;8.93;;;;;;;1.40;67.94;101746.44;5073762;28;20426;-69
2022/12/19 10:18:04;;;;;;;17.07;7.90;;;;;;;1.41;68.02;101746.22;5072657;28;20457;-70
2022/12/19 10:20:35;;;;;;;19.50;7.00;;;;;;;1.50;67.76;101739.59;5073068;28;21011;-69
2022/12/19 10:23:18;;;;;;;19.03;8.40;;;;;;;1.59;67.66;101736.69;5073614;28;20488;-69
2022/12/19 10:25:58;;;;;;;23.47;8.17;;;;;;;1.65;66.84;101727.84;5073167;28;20462;-69
2022/12/19 10:28:42;;;;;;;18.53;7.27;;;;;;;1.67;65.55;101726.59;5073049;28;20552;-69
2022/12/19 10:31:16;;;;;;;21.50;7.90;;;;;;;1.73;65.75;101725.75;5071644;28;20449;-69
2022/12/19 10:33:48;;;;;;;26.10;7.87;;;;;;;1.81;65.62;101723.84;5072263;28;20568;-69
2022/12/19 10:36:15;;;;;;;19.50;7.83;;;;;;;1.85;66.07;101719.72;5073030;28;20552;-69
2022/12/19 10:38:49;;;;;;;19.47;7.37;;;;;;;1.91;65.86;101708.19;5073501;28;20437;-69
2022/12/19 10:41:18;;;;;;;20.20;7.07;;;;;;;1.92;66.32;101707.13;5072224;28;20461;-69
2022/12/19 10:43:54;;;;;;;16.43;7.73;;;;;;;2.01;66.05;101695.97;5073134;28;20465;-69
2022/12/19 10:46:38;;;;;;;22.67;7.97;;;;;;;2.12;65.91;101697.09;5071637;28;20487;-69
2022/12/19 10:49:12;;;;;;;18.33;7.10;;;;;;;2.11;66.02;101690.13;5073015;28;20814;-68
2022/12/19 10:51:39;;;;;;;19.17;8.47;;;;;;;2.14;65.73;101692.38;5053232;28;20426;-69
2022/12/19 10:54:07;;;;;;;20.10;7.43;;;;;;;2.19;65.42;101681.84;5052726;28;21041;-70
2022/12/19 10:56:34;;;;;;;20.83;7.60;;;;;;;2.12;66.55;101674.91;5070605;28;20954;-69
2022/12/19 10:59:02;;;;;;;17.90;6.90;;;;;;;2.05;67.61;101674.16;5073159;28;20449;-69
2022/12/19 11:01:33;;;;;;;15.27;6.57;;;;;;;2.14;67.94;101675.53;5073096;28;20441;-69
2022/12/19 11:04:17;;;;;;;17.60;7.63;;;;;;;2.12;68.89;101675.72;5071413;28;20488;-69
2022/12/19 11:06:47;;;;;;;18.77;8.03;;;;;;;2.14;69.20;101662.16;5073043;28;20856;-69
2022/12/19 11:09:20;;;;;;;20.10;7.20;;;;;;;1.96;69.29;101658.41;5073304;28;20441;-69
2022/12/19 11:11:49;;;;;;;20.83;7.90;;;;;;;2.00;70.14;101662.28;5060845;28;20527;-70
2022/12/19 11:14:23;;;;;;;24.37;7.47;;;;;;;2.01;72.37;101644.38;5073021;28;20879;-69
2022/12/19 11:16:50;;;;;;;15.07;6.27;;;;;;;2.05;73.90;101632.22;5053043;28;20430;-69
2022/12/19 11:19:22;;;;;;;19.53;7.27;;;;;;;2.07;75.00;101648.84;5052975;28;20450;-69
2022/12/19 11:21:48;;;;;;;13.87;5.33;;;;;;;2.02;76.69;101638.00;5072190;28;20461;-69
2022/12/19 11:24:23;;;;;;;18.60;7.77;;;;;;;1.96;78.35;101639.69;5071791;28;20469;-70
2022/12/19 11:26:53;;;;;;;21.07;7.13;;;;;;;1.93;78.30;101637.44;5070978;28;20456;-69
2022/12/19 11:29:25;;;;;;;17.93;7.50;;;;;;;1.94;80.26;101639.09;5071830;28;20467;-69
2022/12/19 11:31:58;;;;;;;20.50;7.97;;;;;;;1.86;82.36;101635.84;5072906;28;20422;-69
2022/12/19 11:34:25;;;;;;;17.53;6.57;;;;;;;1.82;84.16;101642.69;5071927;28;20492;-69